Terminal Aerodrome Forecast
Issued by NWS Burlington, VT

Home | Current Version | Previous Version | Text Only | Print | Product List | Glossary On
Versions: 1 2 3 4 5 6 7 8 9 10 11 12 13 14 15 16 17 18 19
000
FTUS41 KBTV 200100 AAA
TAFBTV
TAF AMD
KBTV 200154Z 2002/2024 29010G18KT P6SM SCT035 OVC050
     FM200600 32005KT P6SM SCT050
     FM200900 VRB02KT P6SM BKN250
     FM201200 18005KT P6SM SCT120 BKN200
     FM201800 18007KT P6SM SCT050 OVC100=

USA.gov is the U.S. government's official web portal to all federal, state and local government web resources and services.